Terminal Aerodrome Forecast
Issued by NWS

Home | Current Version | Previous Version | Text Only | Print | Product List | Glossary Off
Versions: 1 2 3 4 5 6 7 8 9 10 11 12 13 14 15 16 17 18 19 20

000
FTUS42 KMHX 132345
TAFOAJ
TAF
KOAJ 132345Z 1400/1424 VRB03KT P6SM VCSH SCT010 BKN100
     FM140600 00000KT 5SM BR BKN005
     FM140900 00000KT 2SM BR BKN005
     FM141300 00000KT P6SM BKN007
     FM141400 18005KT P6SM VCSH BKN020
      AMD LTD TO CLD VIS AND WIND=

USA.gov is the U.S. government's official web portal to all federal, state and local government web resources and services.